sensor_id;sensor_type;location;lat;lon;timestamp;temperature;humidity
2435;DHT22;1228;51.022;6.764;2022-11-03T00:01:51;9.40;99.90
2435;DHT22;1228;51.022;6.764;2022-11-03T00:04:18;9.50;99.90
2435;DHT22;1228;51.022;6.764;2022-11-03T00:06:49;9.50;99.90
2435;DHT22;1228;51.022;6.764;2022-11-03T00:09:17;9.50;99.90
2435;DHT22;1228;51.022;6.764;2022-11-03T00:11:44;9.50;99.90
2435;DHT22;1228;51.022;6.764;2022-11-03T00:14:11;9.60;99.90
2435;DHT22;1228;51.022;6.764;2022-11-03T00:16:37;9.60;99.90
2435;DHT22;1228;51.022;6.764;2022-11-03T00:19:04;9.70;99.90
2435;DHT22;1228;51.022;6.764;2022-11-03T00:21:30;9.70;99.90
2435;DHT22;1228;51.022;6.764;2022-11-03T00:23:56;9.80;99.90
2435;DHT22;1228;51.022;6.764;2022-11-03T00:26:23;9.80;99.90
2435;DHT22;1228;51.022;6.764;2022-11-03T00:28:51;9.80;99.90
2435;DHT22;1228;51.022;6.764;2022-11-03T00:31:25;9.80;99.90
2435;DHT22;1228;51.022;6.764;2022-11-03T00:33:52;9.80;99.90
2435;DHT22;1228;51.022;6.764;2022-11-03T00:36:29;9.80;99.90
2435;DHT22;1228;51.022;6.764;2022-11-03T00:38:55;9.80;99.90
2435;DHT22;1228;51.022;6.764;2022-11-03T00:41:21;9.80;99.90
2435;DHT22;1228;51.022;6.764;2022-11-03T00:43:48;9.90;99.90
2435;DHT22;1228;51.022;6.764;2022-11-03T00:46:14;9.90;99.90
2435;DHT22;1228;51.022;6.764;2022-11-03T00:48:40;9.90;99.90
2435;DHT22;1228;51.022;6.764;2022-11-03T00:51:13;9.90;99.90
2435;DHT22;1228;51.022;6.764;2022-11-03T00:53:53;9.90;99.90
2435;DHT22;1228;51.022;6.764;2022-11-03T00:56:24;9.90;99.90
2435;DHT22;1228;51.022;6.764;2022-11-03T00:58:51;9.90;99.90
2435;DHT22;1228;51.022;6.764;2022-11-03T01:01:21;9.90;99.90
2435;DHT22;1228;51.022;6.764;2022-11-03T01:03:50;9.90;99.90
2435;DHT22;1228;51.022;6.764;2022-11-03T01:06:37;9.90;99.90
2435;DHT22;1228;51.022;6.764;2022-11-03T01:11:40;9.90;99.90
2435;DHT22;1228;51.022;6.764;2022-11-03T01:14:12;9.90;99.90
2435;DHT22;1228;51.022;6.764;2022-11-03T01:16:37;9.90;99.90
2435;DHT22;1228;51.022;6.764;2022-11-03T01:19:03;9.80;99.90
2435;DHT22;1228;51.022;6.764;2022-11-03T01:21:29;9.80;99.90
2435;DHT22;1228;51.022;6.764;2022-11-03T01:23:55;9.90;99.90
2435;DHT22;1228;51.022;6.764;2022-11-03T01:26:21;9.90;99.90
2435;DHT22;1228;51.022;6.764;2022-11-03T01:28:47;9.80;99.90
2435;DHT22;1228;51.022;6.764;2022-11-03T01:31:19;9.80;99.90
2435;DHT22;1228;51.022;6.764;2022-11-03T01:33:47;9.80;99.90
2435;DHT22;1228;51.022;6.764;2022-11-03T01:36:14;9.80;99.90
2435;DHT22;1228;51.022;6.764;2022-11-03T01:38:40;9.80;99.90
2435;DHT22;1228;51.022;6.764;2022-11-03T01:41:09;9.80;99.90
2435;DHT22;1228;51.022;6.764;2022-11-03T01:43:37;9.80;99.90
2435;DHT22;1228;51.022;6.764;2022-11-03T01:46:17;9.80;99.90
2435;DHT22;1228;51.022;6.764;2022-11-03T01:48:50;9.80;99.90
2435;DHT22;1228;51.022;6.764;2022-11-03T01:51:20;9.80;99.90
2435;DHT22;1228;51.022;6.764;2022-11-03T01:53:50;9.80;99.90
2435;DHT22;1228;51.022;6.764;2022-11-03T01:56:17;9.80;99.90
2435;DHT22;1228;51.022;6.764;2022-11-03T01:58:45;9.80;99.90
2435;DHT22;1228;51.022;6.764;2022-11-03T02:01:13;9.80;99.90
2435;DHT22;1228;51.022;6.764;2022-11-03T02:03:43;9.80;99.90
2435;DHT22;1228;51.022;6.764;2022-11-03T02:06:10;9.80;99.90
2435;DHT22;1228;51.022;6.764;2022-11-03T02:08:55;9.90;99.90
2435;DHT22;1228;51.022;6.764;2022-11-03T02:11:23;9.90;99.90
2435;DHT22;1228;51.022;6.764;2022-11-03T02:14:11;9.90;99.90
2435;DHT22;1228;51.022;6.764;2022-11-03T02:16:39;9.90;99.90
2435;DHT22;1228;51.022;6.764;2022-11-03T02:19:23;9.80;99.90
2435;DHT22;1228;51.022;6.764;2022-11-03T02:22:02;9.90;99.90
2435;DHT22;1228;51.022;6.764;2022-11-03T02:24:51;9.90;99.90
2435;DHT22;1228;51.022;6.764;2022-11-03T02:27:18;9.90;99.90
2435;DHT22;1228;51.022;6.764;2022-11-03T02:29:44;9.80;99.90
2435;DHT22;1228;51.022;6.764;2022-11-03T02:32:22;9.90;99.90
2435;DHT22;1228;51.022;6.764;2022-11-03T02:35:04;9.90;99.90
2435;DHT22;1228;51.022;6.764;2022-11-03T02:37:37;9.90;99.90
2435;DHT22;1228;51.022;6.764;2022-11-03T02:40:13;9.90;99.90
2435;DHT22;1228;51.022;6.764;2022-11-03T02:42:41;9.90;99.90
2435;DHT22;1228;51.022;6.764;2022-11-03T02:45:11;9.90;99.90
2435;DHT22;1228;51.022;6.764;2022-11-03T02:47:39;9.90;99.90
2435;DHT22;1228;51.022;6.764;2022-11-03T02:50:07;9.90;99.90
2435;DHT22;1228;51.022;6.764;2022-11-03T02:52:42;9.90;99.90
2435;DHT22;1228;51.022;6.764;2022-11-03T02:58:25;10.00;99.90
2435;DHT22;1228;51.022;6.764;2022-11-03T03:01:02;10.00;99.90
2435;DHT22;1228;51.022;6.764;2022-11-03T03:03:41;10.00;99.90
2435;DHT22;1228;51.022;6.764;2022-11-03T03:06:11;10.00;99.90
2435;DHT22;1228;51.022;6.764;2022-11-03T03:08:43;10.00;99.90
2435;DHT22;1228;51.022;6.764;2022-11-03T03:11:11;10.00;99.90
2435;DHT22;1228;51.022;6.764;2022-11-03T03:13:39;10.00;99.90
2435;DHT22;1228;51.022;6.764;2022-11-03T03:16:25;10.00;99.90
2435;DHT22;1228;51.022;6.764;2022-11-03T03:19:00;9.90;99.90
2435;DHT22;1228;51.022;6.764;2022-11-03T03:21:31;10.00;99.90
2435;DHT22;1228;51.022;6.764;2022-11-03T03:24:02;10.00;99.90
2435;DHT22;1228;51.022;6.764;2022-11-03T03:26:39;10.00;99.90
2435;DHT22;1228;51.022;6.764;2022-11-03T03:29:17;10.00;99.90
2435;DHT22;1228;51.022;6.764;2022-11-03T03:31:48;10.00;99.90
2435;DHT22;1228;51.022;6.764;2022-11-03T03:34:16;10.00;99.90
2435;DHT22;1228;51.022;6.764;2022-11-03T03:36:46;10.00;99.90
2435;DHT22;1228;51.022;6.764;2022-11-03T03:39:13;10.00;99.90
2435;DHT22;1228;51.022;6.764;2022-11-03T03:41:40;10.00;99.90
2435;DHT22;1228;51.022;6.764;2022-11-03T03:44:07;10.00;99.90
2435;DHT22;1228;51.022;6.764;2022-11-03T03:46:37;9.90;99.90
2435;DHT22;1228;51.022;6.764;2022-11-03T03:49:06;9.90;99.90
2435;DHT22;1228;51.022;6.764;2022-11-03T03:51:32;9.90;99.90
2435;DHT22;1228;51.022;6.764;2022-11-03T03:53:58;9.90;99.90
2435;DHT22;1228;51.022;6.764;2022-11-03T03:57:06;9.90;99.90
2435;DHT22;1228;51.022;6.764;2022-11-03T03:59:31;10.00;99.90
2435;DHT22;1228;51.022;6.764;2022-11-03T04:01:57;10.00;99.90
2435;DHT22;1228;51.022;6.764;2022-11-03T04:04:23;10.00;99.90
2435;DHT22;1228;51.022;6.764;2022-11-03T04:06:49;10.00;99.90
2435;DHT22;1228;51.022;6.764;2022-11-03T04:09:34;10.00;99.90
2435;DHT22;1228;51.022;6.764;2022-11-03T04:12:00;10.00;99.90
2435;DHT22;1228;51.022;6.764;2022-11-03T04:14:44;10.00;99.90
2435;DHT22;1228;51.022;6.764;2022-11-03T04:17:28;10.00;99.90
2435;DHT22;1228;51.022;6.764;2022-11-03T04:20:12;10.00;99.90
2435;DHT22;1228;51.022;6.764;2022-11-03T04:22:56;10.00;99.90
2435;DHT22;1228;51.022;6.764;2022-11-03T04:25:22;10.00;99.90
2435;DHT22;1228;51.022;6.764;2022-11-03T04:27:47;10.00;99.90
2435;DHT22;1228;51.022;6.764;2022-11-03T04:30:15;10.00;99.90
2435;DHT22;1228;51.022;6.764;2022-11-03T04:32:41;10.00;99.90
2435;DHT22;1228;51.022;6.764;2022-11-03T04:35:23;10.00;99.90
2435;DHT22;1228;51.022;6.764;2022-11-03T04:38:02;10.00;99.90
2435;DHT22;1228;51.022;6.764;2022-11-03T04:40:28;10.10;99.90
2435;DHT22;1228;51.022;6.764;2022-11-03T04:42:54;10.10;99.90
2435;DHT22;1228;51.022;6.764;2022-11-03T04:45:28;10.10;99.90
2435;DHT22;1228;51.022;6.764;2022-11-03T04:47:54;10.10;99.90
2435;DHT22;1228;51.022;6.764;2022-11-03T04:50:21;10.10;99.90
2435;DHT22;1228;51.022;6.764;2022-11-03T04:52:50;10.10;99.90
2435;DHT22;1228;51.022;6.764;2022-11-03T04:55:19;10.10;99.90
2435;DHT22;1228;51.022;6.764;2022-11-03T04:57:48;10.10;99.90
2435;DHT22;1228;51.022;6.764;2022-11-03T05:00:17;10.10;99.90
2435;DHT22;1228;51.022;6.764;2022-11-03T05:02:47;10.20;99.90
2435;DHT22;1228;51.022;6.764;2022-11-03T05:05:18;10.20;99.90
2435;DHT22;1228;51.022;6.764;2022-11-03T05:07:46;10.20;99.90
2435;DHT22;1228;51.022;6.764;2022-11-03T05:10:18;10.20;99.90
2435;DHT22;1228;51.022;6.764;2022-11-03T05:12:46;10.30;99.90
2435;DHT22;1228;51.022;6.764;2022-11-03T05:17:58;10.30;99.90
2435;DHT22;1228;51.022;6.764;2022-11-03T05:20:31;10.50;99.90
2435;DHT22;1228;51.022;6.764;2022-11-03T05:22:59;10.40;99.90
2435;DHT22;1228;51.022;6.764;2022-11-03T05:25:38;10.40;99.90
2435;DHT22;1228;51.022;6.764;2022-11-03T05:28:35;10.50;99.90
2435;DHT22;1228;51.022;6.764;2022-11-03T05:31:22;10.50;99.90
2435;DHT22;1228;51.022;6.764;2022-11-03T05:33:50;10.50;99.90
2435;DHT22;1228;51.022;6.764;2022-11-03T05:36:19;10.50;99.90
2435;DHT22;1228;51.022;6.764;2022-11-03T05:38:46;10.50;99.90
2435;DHT22;1228;51.022;6.764;2022-11-03T05:41:24;10.60;99.90
2435;DHT22;1228;51.022;6.764;2022-11-03T05:44:10;10.60;99.90
2435;DHT22;1228;51.022;6.764;2022-11-03T05:46:37;10.50;99.90
2435;DHT22;1228;51.022;6.764;2022-11-03T05:49:06;10.50;99.90
2435;DHT22;1228;51.022;6.764;2022-11-03T05:51:34;10.50;99.90
2435;DHT22;1228;51.022;6.764;2022-11-03T05:54:04;10.60;99.90
2435;DHT22;1228;51.022;6.764;2022-11-03T05:56:32;10.60;99.90
2435;DHT22;1228;51.022;6.764;2022-11-03T05:59:00;10.50;99.90
2435;DHT22;1228;51.022;6.764;2022-11-03T06:01:35;10.50;99.90
2435;DHT22;1228;51.022;6.764;2022-11-03T06:04:28;10.50;99.90
2435;DHT22;1228;51.022;6.764;2022-11-03T06:07:03;10.50;99.90
2435;DHT22;1228;51.022;6.764;2022-11-03T06:09:32;10.60;99.90
2435;DHT22;1228;51.022;6.764;2022-11-03T06:12:00;10.60;99.90
2435;DHT22;1228;51.022;6.764;2022-11-03T06:14:29;10.60;99.90
2435;DHT22;1228;51.022;6.764;2022-11-03T06:16:58;10.60;99.90
2435;DHT22;1228;51.022;6.764;2022-11-03T06:21:55;10.60;99.90
2435;DHT22;1228;51.022;6.764;2022-11-03T06:24:25;10.50;99.90
2435;DHT22;1228;51.022;6.764;2022-11-03T06:26:51;10.60;99.90
2435;DHT22;1228;51.022;6.764;2022-11-03T06:29:18;10.60;99.90
2435;DHT22;1228;51.022;6.764;2022-11-03T06:31:47;10.60;99.90
2435;DHT22;1228;51.022;6.764;2022-11-03T06:34:45;10.50;99.90
2435;DHT22;1228;51.022;6.764;2022-11-03T06:37:20;10.50;99.90
2435;DHT22;1228;51.022;6.764;2022-11-03T06:39:48;10.50;99.90
2435;DHT22;1228;51.022;6.764;2022-11-03T06:42:19;10.50;99.90
2435;DHT22;1228;51.022;6.764;2022-11-03T06:44:47;10.60;99.90
2435;DHT22;1228;51.022;6.764;2022-11-03T06:47:24;10.60;99.90
2435;DHT22;1228;51.022;6.764;2022-11-03T06:49:56;10.70;99.90
2435;DHT22;1228;51.022;6.764;2022-11-03T06:54:49;10.70;99.90
2435;DHT22;1228;51.022;6.764;2022-11-03T06:57:18;10.70;99.90
2435;DHT22;1228;51.022;6.764;2022-11-03T06:59:44;10.70;99.90
2435;DHT22;1228;51.022;6.764;2022-11-03T07:05:22;10.80;99.90
2435;DHT22;1228;51.022;6.764;2022-11-03T07:07:48;10.80;99.90
2435;DHT22;1228;51.022;6.764;2022-11-03T07:10:14;10.80;99.90
2435;DHT22;1228;51.022;6.764;2022-11-03T07:12:41;10.90;99.90
2435;DHT22;1228;51.022;6.764;2022-11-03T07:15:22;11.00;99.90
2435;DHT22;1228;51.022;6.764;2022-11-03T07:17:48;11.10;99.90
2435;DHT22;1228;51.022;6.764;2022-11-03T07:20:15;11.10;99.90
2435;DHT22;1228;51.022;6.764;2022-11-03T07:22:42;11.30;99.90
2435;DHT22;1228;51.022;6.764;2022-11-03T07:25:17;11.40;99.90
2435;DHT22;1228;51.022;6.764;2022-11-03T07:27:43;11.60;99.90
2435;DHT22;1228;51.022;6.764;2022-11-03T07:30:13;11.70;99.90
2435;DHT22;1228;51.022;6.764;2022-11-03T07:32:40;11.80;99.90
2435;DHT22;1228;51.022;6.764;2022-11-03T07:37:49;12.10;99.90
2435;DHT22;1228;51.022;6.764;2022-11-03T07:40:18;12.50;99.90
2435;DHT22;1228;51.022;6.764;2022-11-03T07:42:46;12.80;99.90
2435;DHT22;1228;51.022;6.764;2022-11-03T07:45:41;13.20;99.90
2435;DHT22;1228;51.022;6.764;2022-11-03T07:48:47;13.50;99.90
2435;DHT22;1228;51.022;6.764;2022-11-03T07:53:44;13.90;99.90
2435;DHT22;1228;51.022;6.764;2022-11-03T07:56:20;13.80;99.90
2435;DHT22;1228;51.022;6.764;2022-11-03T07:59:30;13.80;99.90
2435;DHT22;1228;51.022;6.764;2022-11-03T08:01:57;13.60;99.90
2435;DHT22;1228;51.022;6.764;2022-11-03T08:04:26;13.40;99.90
2435;DHT22;1228;51.022;6.764;2022-11-03T08:06:53;13.20;99.90
2435;DHT22;1228;51.022;6.764;2022-11-03T08:09:19;13.10;99.90
2435;DHT22;1228;51.022;6.764;2022-11-03T08:11:45;13.00;99.90
2435;DHT22;1228;51.022;6.764;2022-11-03T08:14:11;12.90;99.90
2435;DHT22;1228;51.022;6.764;2022-11-03T08:16:37;12.80;99.90
2435;DHT22;1228;51.022;6.764;2022-11-03T08:19:03;12.90;99.90
2435;DHT22;1228;51.022;6.764;2022-11-03T08:21:29;12.80;99.90
2435;DHT22;1228;51.022;6.764;2022-11-03T08:23:54;12.80;99.90
2435;DHT22;1228;51.022;6.764;2022-11-03T08:26:20;12.80;99.90
2435;DHT22;1228;51.022;6.764;2022-11-03T08:28:46;12.90;99.90
2435;DHT22;1228;51.022;6.764;2022-11-03T08:31:11;13.00;99.90
2435;DHT22;1228;51.022;6.764;2022-11-03T08:33:37;13.10;99.90
2435;DHT22;1228;51.022;6.764;2022-11-03T08:36:03;13.20;99.90
2435;DHT22;1228;51.022;6.764;2022-11-03T08:38:29;13.20;99.90
2435;DHT22;1228;51.022;6.764;2022-11-03T08:40:55;13.30;99.90
2435;DHT22;1228;51.022;6.764;2022-11-03T08:43:23;13.40;99.90
2435;DHT22;1228;51.022;6.764;2022-11-03T08:45:48;13.40;99.90
2435;DHT22;1228;51.022;6.764;2022-11-03T08:48:21;13.50;99.90
2435;DHT22;1228;51.022;6.764;2022-11-03T08:50:48;13.50;99.90
2435;DHT22;1228;51.022;6.764;2022-11-03T08:53:19;13.60;99.90
2435;DHT22;1228;51.022;6.764;2022-11-03T08:55:44;13.70;99.90
2435;DHT22;1228;51.022;6.764;2022-11-03T08:58:10;13.70;99.90
2435;DHT22;1228;51.022;6.764;2022-11-03T09:00:36;13.80;99.90
2435;DHT22;1228;51.022;6.764;2022-11-03T09:03:01;13.90;99.90
2435;DHT22;1228;51.022;6.764;2022-11-03T09:05:27;14.00;99.90
2435;DHT22;1228;51.022;6.764;2022-11-03T09:07:53;14.10;99.90
2435;DHT22;1228;51.022;6.764;2022-11-03T09:10:18;14.20;99.90
2435;DHT22;1228;51.022;6.764;2022-11-03T09:12:44;14.30;99.90
2435;DHT22;1228;51.022;6.764;2022-11-03T09:15:10;14.40;99.90
2435;DHT22;1228;51.022;6.764;2022-11-03T09:17:36;14.50;99.90
2435;DHT22;1228;51.022;6.764;2022-11-03T09:20:01;14.60;99.90
2435;DHT22;1228;51.022;6.764;2022-11-03T09:22:27;14.60;99.90
2435;DHT22;1228;51.022;6.764;2022-11-03T09:24:53;14.60;99.90
2435;DHT22;1228;51.022;6.764;2022-11-03T09:27:18;14.60;99.90
2435;DHT22;1228;51.022;6.764;2022-11-03T09:29:44;14.70;99.90
2435;DHT22;1228;51.022;6.764;2022-11-03T09:32:10;14.70;99.90
2435;DHT22;1228;51.022;6.764;2022-11-03T09:34:36;14.80;99.90
2435;DHT22;1228;51.022;6.764;2022-11-03T09:37:01;14.90;99.90
2435;DHT22;1228;51.022;6.764;2022-11-03T09:39:27;15.00;99.90
2435;DHT22;1228;51.022;6.764;2022-11-03T09:41:54;15.10;99.90
2435;DHT22;1228;51.022;6.764;2022-11-03T09:44:22;15.20;99.90
2435;DHT22;1228;51.022;6.764;2022-11-03T09:46:48;15.20;99.90
2435;DHT22;1228;51.022;6.764;2022-11-03T09:49:15;15.20;99.90
2435;DHT22;1228;51.022;6.764;2022-11-03T09:51:42;15.20;99.90
2435;DHT22;1228;51.022;6.764;2022-11-03T09:54:12;15.30;99.90
2435;DHT22;1228;51.022;6.764;2022-11-03T09:56:40;15.40;99.90
2435;DHT22;1228;51.022;6.764;2022-11-03T09:59:17;15.40;99.90
2435;DHT22;1228;51.022;6.764;2022-11-03T10:01:45;15.40;99.90
2435;DHT22;1228;51.022;6.764;2022-11-03T10:04:13;15.40;99.90
2435;DHT22;1228;51.022;6.764;2022-11-03T10:06:39;15.30;99.90
2435;DHT22;1228;51.022;6.764;2022-11-03T10:09:05;15.20;99.90
2435;DHT22;1228;51.022;6.764;2022-11-03T10:11:33;15.10;99.90
2435;DHT22;1228;51.022;6.764;2022-11-03T10:13:59;15.10;99.90
2435;DHT22;1228;51.022;6.764;2022-11-03T10:16:25;15.00;99.90
2435;DHT22;1228;51.022;6.764;2022-11-03T10:18:52;15.00;99.90
2435;DHT22;1228;51.022;6.764;2022-11-03T10:21:26;15.00;99.90
2435;DHT22;1228;51.022;6.764;2022-11-03T10:23:52;15.00;99.90
2435;DHT22;1228;51.022;6.764;2022-11-03T10:26:19;14.90;99.90
2435;DHT22;1228;51.022;6.764;2022-11-03T10:29:01;15.00;99.90
2435;DHT22;1228;51.022;6.764;2022-11-03T10:31:47;15.00;99.90
2435;DHT22;1228;51.022;6.764;2022-11-03T10:34:31;15.00;99.90
2435;DHT22;1228;51.022;6.764;2022-11-03T10:37:18;15.00;99.90
2435;DHT22;1228;51.022;6.764;2022-11-03T10:39:47;15.10;99.90
2435;DHT22;1228;51.022;6.764;2022-11-03T10:42:20;15.10;99.90
2435;DHT22;1228;51.022;6.764;2022-11-03T10:44:48;15.20;99.90
2435;DHT22;1228;51.022;6.764;2022-11-03T10:47:25;15.20;99.90
2435;DHT22;1228;51.022;6.764;2022-11-03T10:49:55;15.30;99.90
2435;DHT22;1228;51.022;6.764;2022-11-03T10:52:26;15.10;99.90
2435;DHT22;1228;51.022;6.764;2022-11-03T10:54:54;15.00;99.90
2435;DHT22;1228;51.022;6.764;2022-11-03T10:57:21;14.90;99.90
2435;DHT22;1228;51.022;6.764;2022-11-03T10:59:49;14.80;99.90
2435;DHT22;1228;51.022;6.764;2022-11-03T11:02:25;14.80;99.90
2435;DHT22;1228;51.022;6.764;2022-11-03T11:04:56;14.80;99.90
2435;DHT22;1228;51.022;6.764;2022-11-03T11:07:29;14.80;99.90
2435;DHT22;1228;51.022;6.764;2022-11-03T11:10:25;14.80;99.90
2435;DHT22;1228;51.022;6.764;2022-11-03T11:15:42;14.90;99.90
2435;DHT22;1228;51.022;6.764;2022-11-03T11:18:09;14.80;99.90
2435;DHT22;1228;51.022;6.764;2022-11-03T11:20:41;14.80;99.90
2435;DHT22;1228;51.022;6.764;2022-11-03T11:31:35;14.60;99.90
2435;DHT22;1228;51.022;6.764;2022-11-03T11:42:17;14.80;99.90
2435;DHT22;1228;51.022;6.764;2022-11-03T11:47:24;14.60;99.90
2435;DHT22;1228;51.022;6.764;2022-11-03T11:55:30;14.10;99.90
2435;DHT22;1228;51.022;6.764;2022-11-03T11:57:58;14.10;99.90
2435;DHT22;1228;51.022;6.764;2022-11-03T12:00:28;14.00;99.90
2435;DHT22;1228;51.022;6.764;2022-11-03T12:02:54;14.00;99.90
2435;DHT22;1228;51.022;6.764;2022-11-03T12:05:30;13.90;99.90
2435;DHT22;1228;51.022;6.764;2022-11-03T12:07:57;13.90;99.90
2435;DHT22;1228;51.022;6.764;2022-11-03T12:10:28;13.90;99.90
2435;DHT22;1228;51.022;6.764;2022-11-03T12:12:56;14.00;99.90
2435;DHT22;1228;51.022;6.764;2022-11-03T12:15:54;14.10;99.90
2435;DHT22;1228;51.022;6.764;2022-11-03T12:18:32;14.20;99.90
2435;DHT22;1228;51.022;6.764;2022-11-03T12:20:59;14.20;99.90
2435;DHT22;1228;51.022;6.764;2022-11-03T12:23:40;14.40;99.90
2435;DHT22;1228;51.022;6.764;2022-11-03T12:26:55;14.50;99.90
2435;DHT22;1228;51.022;6.764;2022-11-03T12:29:04;14.50;99.90
2435;DHT22;1228;51.022;6.764;2022-11-03T12:31:30;14.50;99.90
2435;DHT22;1228;51.022;6.764;2022-11-03T12:33:55;14.50;99.90
2435;DHT22;1228;51.022;6.764;2022-11-03T12:36:21;14.50;99.90
2435;DHT22;1228;51.022;6.764;2022-11-03T12:38:47;14.50;99.90
2435;DHT22;1228;51.022;6.764;2022-11-03T12:41:12;14.60;99.90
2435;DHT22;1228;51.022;6.764;2022-11-03T12:43:50;14.60;99.90
2435;DHT22;1228;51.022;6.764;2022-11-03T12:46:17;14.50;99.90
2435;DHT22;1228;51.022;6.764;2022-11-03T12:48:44;14.40;99.90
2435;DHT22;1228;51.022;6.764;2022-11-03T12:51:17;14.20;99.90
2435;DHT22;1228;51.022;6.764;2022-11-03T12:53:50;14.20;99.90
2435;DHT22;1228;51.022;6.764;2022-11-03T12:56:17;14.20;99.90
2435;DHT22;1228;51.022;6.764;2022-11-03T12:58:43;14.10;99.90
2435;DHT22;1228;51.022;6.764;2022-11-03T13:01:09;14.10;99.90
2435;DHT22;1228;51.022;6.764;2022-11-03T13:03:35;14.10;99.90
2435;DHT22;1228;51.022;6.764;2022-11-03T13:06:02;14.00;99.90
2435;DHT22;1228;51.022;6.764;2022-11-03T13:08:32;14.10;99.90
2435;DHT22;1228;51.022;6.764;2022-11-03T13:10:58;14.10;99.90
2435;DHT22;1228;51.022;6.764;2022-11-03T13:13:24;14.10;99.90
2435;DHT22;1228;51.022;6.764;2022-11-03T13:15:50;14.20;99.90
2435;DHT22;1228;51.022;6.764;2022-11-03T13:18:17;14.30;99.90
2435;DHT22;1228;51.022;6.764;2022-11-03T13:20:43;14.40;99.90
2435;DHT22;1228;51.022;6.764;2022-11-03T13:23:09;14.40;99.90
2435;DHT22;1228;51.022;6.764;2022-11-03T13:25:35;14.40;99.90
2435;DHT22;1228;51.022;6.764;2022-11-03T13:28:00;14.50;99.90
2435;DHT22;1228;51.022;6.764;2022-11-03T13:30:28;14.40;99.90
2435;DHT22;1228;51.022;6.764;2022-11-03T13:32:54;14.50;99.90
2435;DHT22;1228;51.022;6.764;2022-11-03T13:35:19;14.50;99.90
2435;DHT22;1228;51.022;6.764;2022-11-03T13:37:45;14.60;99.90
2435;DHT22;1228;51.022;6.764;2022-11-03T13:40:11;14.60;99.90
2435;DHT22;1228;51.022;6.764;2022-11-03T13:42:38;14.50;99.90
2435;DHT22;1228;51.022;6.764;2022-11-03T13:45:04;14.50;99.90
2435;DHT22;1228;51.022;6.764;2022-11-03T13:47:30;14.40;99.90
2435;DHT22;1228;51.022;6.764;2022-11-03T13:49:56;14.30;99.90
2435;DHT22;1228;51.022;6.764;2022-11-03T13:52:21;14.30;99.90
2435;DHT22;1228;51.022;6.764;2022-11-03T13:54:49;14.20;99.90
2435;DHT22;1228;51.022;6.764;2022-11-03T13:57:16;14.10;99.90
2435;DHT22;1228;51.022;6.764;2022-11-03T13:59:41;14.00;99.90
2435;DHT22;1228;51.022;6.764;2022-11-03T14:02:09;14.00;99.90
2435;DHT22;1228;51.022;6.764;2022-11-03T14:04:34;13.90;99.90
2435;DHT22;1228;51.022;6.764;2022-11-03T14:07:00;13.80;99.90
2435;DHT22;1228;51.022;6.764;2022-11-03T14:09:26;13.80;99.90
2435;DHT22;1228;51.022;6.764;2022-11-03T14:11:52;13.80;99.90
2435;DHT22;1228;51.022;6.764;2022-11-03T14:14:36;13.80;99.90
2435;DHT22;1228;51.022;6.764;2022-11-03T14:17:02;13.80;99.90
2435;DHT22;1228;51.022;6.764;2022-11-03T14:19:27;13.80;99.90
2435;DHT22;1228;51.022;6.764;2022-11-03T14:21:53;13.70;99.90
2435;DHT22;1228;51.022;6.764;2022-11-03T14:24:19;13.70;99.90
2435;DHT22;1228;51.022;6.764;2022-11-03T14:26:44;13.70;99.90
2435;DHT22;1228;51.022;6.764;2022-11-03T14:29:10;13.50;99.90
2435;DHT22;1228;51.022;6.764;2022-11-03T14:31:36;13.40;99.90
2435;DHT22;1228;51.022;6.764;2022-11-03T14:34:01;13.20;99.90
2435;DHT22;1228;51.022;6.764;2022-11-03T14:36:27;13.00;99.90
2435;DHT22;1228;51.022;6.764;2022-11-03T14:38:52;12.80;99.90
2435;DHT22;1228;51.022;6.764;2022-11-03T14:41:18;12.70;99.90
2435;DHT22;1228;51.022;6.764;2022-11-03T14:44:02;12.60;99.90
2435;DHT22;1228;51.022;6.764;2022-11-03T14:46:28;12.50;99.90
2435;DHT22;1228;51.022;6.764;2022-11-03T14:48:54;12.40;99.90
2435;DHT22;1228;51.022;6.764;2022-11-03T14:51:20;12.40;99.90
2435;DHT22;1228;51.022;6.764;2022-11-03T14:53:45;12.20;99.90
2435;DHT22;1228;51.022;6.764;2022-11-03T14:56:11;12.20;99.90
2435;DHT22;1228;51.022;6.764;2022-11-03T14:58:37;12.00;99.90
2435;DHT22;1228;51.022;6.764;2022-11-03T15:01:03;11.90;99.90
2435;DHT22;1228;51.022;6.764;2022-11-03T15:03:29;11.80;99.90
2435;DHT22;1228;51.022;6.764;2022-11-03T15:05:54;11.70;99.90
2435;DHT22;1228;51.022;6.764;2022-11-03T15:08:21;11.70;99.90
2435;DHT22;1228;51.022;6.764;2022-11-03T15:10:48;11.60;99.90
2435;DHT22;1228;51.022;6.764;2022-11-03T15:13:13;11.60;99.90
2435;DHT22;1228;51.022;6.764;2022-11-03T15:15:39;11.60;99.90
2435;DHT22;1228;51.022;6.764;2022-11-03T15:18:06;11.50;99.90
2435;DHT22;1228;51.022;6.764;2022-11-03T15:20:31;11.50;99.90
2435;DHT22;1228;51.022;6.764;2022-11-03T15:23:00;11.50;99.90
2435;DHT22;1228;51.022;6.764;2022-11-03T15:25:27;11.50;99.90
2435;DHT22;1228;51.022;6.764;2022-11-03T15:27:52;11.50;99.90
2435;DHT22;1228;51.022;6.764;2022-11-03T15:30:18;11.40;99.90
2435;DHT22;1228;51.022;6.764;2022-11-03T15:32:44;11.50;99.90
2435;DHT22;1228;51.022;6.764;2022-11-03T15:35:09;11.40;99.90
2435;DHT22;1228;51.022;6.764;2022-11-03T15:37:35;11.40;99.90
2435;DHT22;1228;51.022;6.764;2022-11-03T15:40:01;11.40;99.90
2435;DHT22;1228;51.022;6.764;2022-11-03T15:42:26;11.40;99.90
2435;DHT22;1228;51.022;6.764;2022-11-03T15:44:52;11.40;99.90
2435;DHT22;1228;51.022;6.764;2022-11-03T15:47:18;11.40;99.90
2435;DHT22;1228;51.022;6.764;2022-11-03T15:49:43;11.40;99.90
2435;DHT22;1228;51.022;6.764;2022-11-03T15:52:09;11.50;99.90
2435;DHT22;1228;51.022;6.764;2022-11-03T15:54:34;11.40;99.90
2435;DHT22;1228;51.022;6.764;2022-11-03T15:57:00;11.40;99.90
2435;DHT22;1228;51.022;6.764;2022-11-03T15:59:26;11.40;99.90
2435;DHT22;1228;51.022;6.764;2022-11-03T16:01:51;11.40;99.90
2435;DHT22;1228;51.022;6.764;2022-11-03T16:04:17;11.40;99.90
2435;DHT22;1228;51.022;6.764;2022-11-03T16:06:42;11.30;99.90
2435;DHT22;1228;51.022;6.764;2022-11-03T16:09:08;11.30;99.90
2435;DHT22;1228;51.022;6.764;2022-11-03T16:11:34;11.30;99.90
2435;DHT22;1228;51.022;6.764;2022-11-03T16:13:59;11.30;99.90
2435;DHT22;1228;51.022;6.764;2022-11-03T16:16:25;11.30;99.90
2435;DHT22;1228;51.022;6.764;2022-11-03T16:18:51;11.30;99.90
2435;DHT22;1228;51.022;6.764;2022-11-03T16:21:16;11.30;99.90
2435;DHT22;1228;51.022;6.764;2022-11-03T16:23:42;11.30;99.90
2435;DHT22;1228;51.022;6.764;2022-11-03T16:26:08;11.30;99.90
2435;DHT22;1228;51.022;6.764;2022-11-03T16:28:34;11.30;99.90
2435;DHT22;1228;51.022;6.764;2022-11-03T16:31:00;11.30;99.90
2435;DHT22;1228;51.022;6.764;2022-11-03T16:33:25;11.30;99.90
2435;DHT22;1228;51.022;6.764;2022-11-03T16:35:51;11.30;99.90
2435;DHT22;1228;51.022;6.764;2022-11-03T16:38:17;11.30;99.90
2435;DHT22;1228;51.022;6.764;2022-11-03T16:40:43;11.30;99.90
2435;DHT22;1228;51.022;6.764;2022-11-03T16:43:09;11.30;99.90
2435;DHT22;1228;51.022;6.764;2022-11-03T16:45:35;11.30;99.90
2435;DHT22;1228;51.022;6.764;2022-11-03T16:48:01;11.30;99.90
2435;DHT22;1228;51.022;6.764;2022-11-03T16:50:26;11.30;99.90
2435;DHT22;1228;51.022;6.764;2022-11-03T16:52:52;11.30;99.90
2435;DHT22;1228;51.022;6.764;2022-11-03T16:55:18;11.40;99.90
2435;DHT22;1228;51.022;6.764;2022-11-03T16:57:44;11.40;99.90
2435;DHT22;1228;51.022;6.764;2022-11-03T17:02:37;11.40;99.90
2435;DHT22;1228;51.022;6.764;2022-11-03T17:05:03;11.40;99.90
2435;DHT22;1228;51.022;6.764;2022-11-03T17:07:29;11.40;99.90
2435;DHT22;1228;51.022;6.764;2022-11-03T17:09:55;11.40;99.90
2435;DHT22;1228;51.022;6.764;2022-11-03T17:12:21;11.40;99.90